Terminal Aerodrome Forecast
Issued by NWS

Home | Current Version | Previous Version | Graphics & Text | Print | Product List | Glossary On
Versions: 1 2 3 4 5 6 7 8 9 10 11 12 13 14 15 16 17 18 19 20 21 22 23
000
FTUS43 KBIS 250500
TAFDIK
TAF
KDIK 250534Z 2506/2606 31020G27KT P6SM OVC015
     FM251200 32018G25KT P6SM BKN015 OVC020
      TEMPO 2515/2517 SCT015 BKN025
     FM251700 32016G23KT P6SM FEW020 BKN040
     FM251900 32014G19KT P6SM SCT050
     FM260100 VRB03KT P6SM SCT045 SCT200=

USA.gov is the U.S. government's official web portal to all federal, state and local government web resources and services.